OIZI 
Iran Shahr Airport
Iran 
ICAOStatus
OIZIOperational
LatitudeLongitude
27° 14' 9" N60° 43' 12" E
27.23609960.720001
Local Time (DST+5)UTC (GMT+4)
04-25-2014 07:57 am04-25-2014 03:27
Sunrise-SunsetLocalUTC
Begin Civil Twilight05:27 am00:57
Sunrise05:51 am01:21
Sunset06:58 pm14:28
End Civil Twilight07:22 pm14:52

Current Weather

METARObservedFlight Conditions

OIZI 250300Z 00000KT 6000 SKC 26/06 Q1012

Fri, Apr 25, 2014 @ 03:00 UTC(Z)

(27 Minutes ago)

MVFR

(Marginal Visual Flight Rules)

WindVisibilityCloudsConditions
Calm
6000 meters
  • Clear skies
  • No significant weather
TemperaturesReadingsPrecipitation
Current Temp26°C (79°F)
Dewpoint6°C (43°F)
Humidity28%
Altimeter29.88"Hg
Sea Level Pressure1012mb
Field Elevation1938.98'
None Recorded

Previous 24 hour Weather Graphs

  Loading...

CheckWX.com is intended as a tool to help pilots better visualize weather data.   It is not intended as a substitute for an official weather briefing obtained from a Flight Service Station.
CheckWX.com does not meet the FAA requirements for an official pre-flight weather briefing.   Therefore, it's important that pilots still call and obtain an official FSS pre-flight weather briefing.